createdAt,value
2023-04-25T00:04:27.973Z,5.8
2023-04-25T00:06:33.888Z,5.8
2023-04-25T00:08:40.202Z,5.8
2023-04-25T00:10:46.490Z,5.8
2023-04-25T00:12:55.576Z,5.8
2023-04-25T00:15:01.924Z,5.7
2023-04-25T00:17:08.173Z,5.7
2023-04-25T00:19:14.463Z,5.7
2023-04-25T00:23:26.987Z,5.7
2023-04-25T00:25:33.281Z,5.6
2023-04-25T00:27:42.489Z,5.6
2023-04-25T00:31:54.982Z,5.5
2023-04-25T00:34:01.135Z,5.5
2023-04-25T00:36:07.457Z,5.5
2023-04-25T00:38:13.728Z,5.5
2023-04-25T00:40:20.028Z,5.4
2023-04-25T00:44:35.506Z,5.3
2023-04-25T00:46:41.792Z,5.3
2023-04-25T00:51:07.900Z,5.3
2023-04-25T00:53:14.181Z,5.3
2023-04-25T00:55:23.377Z,5.3
2023-04-25T00:57:29.680Z,5.3
2023-04-25T00:59:35.924Z,5.3
2023-04-25T01:03:48.714Z,5.3
2023-04-25T01:08:01.072Z,5.4
2023-04-25T01:10:10.246Z,5.3
2023-04-25T01:12:16.540Z,5.4
2023-04-25T01:14:22.875Z,5.4
2023-04-25T01:16:29.177Z,5.3
2023-04-25T01:18:35.376Z,5.3
2023-04-25T01:20:41.682Z,5.2
2023-04-25T01:22:47.950Z,5.1
2023-04-25T01:24:57.161Z,4.9
2023-04-25T01:27:03.456Z,4.9
2023-04-25T01:29:09.674Z,4.8
2023-04-25T01:33:22.224Z,4.7
2023-04-25T01:41:50.238Z,4.7
2023-04-25T01:43:56.516Z,4.7
2023-04-25T01:53:29.089Z,5
2023-04-25T02:04:00.738Z,5.1
2023-04-25T02:06:06.719Z,5
2023-04-25T02:08:15.899Z,5
2023-04-25T02:10:22.132Z,4.9
2023-04-25T02:12:28.427Z,5
2023-04-25T02:14:34.715Z,5
2023-04-25T02:16:41.059Z,5
2023-04-25T02:18:47.257Z,5
2023-04-25T02:20:53.518Z,4.9
2023-04-25T02:23:02.676Z,4.8
2023-04-25T02:25:08.941Z,4.8
2023-04-25T02:29:21.512Z,4.8
2023-04-25T02:33:34.034Z,4.8
2023-04-25T02:37:49.432Z,4.6
2023-04-25T02:43:06.604Z,4.5
2023-04-25T02:57:54.876Z,4.3
2023-04-25T03:00:01.174Z,4.4
2023-04-25T03:06:22.828Z,4.4
2023-04-25T03:08:29.061Z,4.4
2023-04-25T03:10:35.353Z,4.4
2023-04-25T03:21:09.506Z,4.5
2023-04-25T03:23:15.741Z,4.5
2023-04-25T03:29:34.551Z,4.6
2023-04-25T03:31:40.796Z,4.7
2023-04-25T03:33:47.038Z,4.7
2023-04-25T03:35:56.218Z,4.7
2023-04-25T03:38:02.471Z,4.7
2023-04-25T03:40:08.801Z,4.7
2023-04-25T03:41:13.405Z,4.8
2023-04-25T03:43:19.641Z,4.8
2023-04-25T03:47:32.219Z,4.8
2023-04-25T03:51:47.612Z,4.8
2023-04-25T03:53:53.883Z,4.7
2023-04-25T03:56:00.198Z,4.7
2023-04-25T03:58:06.404Z,4.7
2023-04-25T04:00:12.692Z,4.6
2023-04-25T04:02:19.038Z,4.6
2023-04-25T04:04:28.368Z,4.7
2023-04-25T04:06:34.389Z,4.7
2023-04-25T04:08:40.640Z,4.7
2023-04-25T04:10:46.934Z,4.7
2023-04-25T04:21:21.173Z,4.8
2023-04-25T04:23:27.422Z,4.8
2023-04-25T04:38:14.220Z,4.8
2023-04-25T04:40:43.856Z,4.9
2023-04-25T04:47:05.669Z,5
2023-04-25T04:49:11.872Z,5
2023-04-25T04:53:24.391Z,4.8
2023-04-25T04:55:30.681Z,4.7
2023-04-25T04:57:36.940Z,4.7
2023-04-25T05:01:52.408Z,4.8
2023-04-25T05:03:59.006Z,4.8
2023-04-25T05:06:04.941Z,4.8
2023-04-25T05:08:11.217Z,4.8
2023-04-25T05:10:17.466Z,4.7
2023-04-25T05:20:51.754Z,4.3
2023-04-25T05:22:58.001Z,4.3
2023-04-25T05:25:04.268Z,4.4
2023-04-25T05:27:10.542Z,4.5
2023-04-25T05:29:16.820Z,4.5
2023-04-25T05:31:25.977Z,4.4
2023-04-25T05:33:32.209Z,4.4
2023-04-25T05:35:38.540Z,4.5
2023-04-25T05:36:43.049Z,4.5
2023-04-25T05:38:49.323Z,4.5
2023-04-25T05:40:55.591Z,4.5
2023-04-25T05:43:01.884Z,4.5
2023-04-25T05:49:23.507Z,4.7
2023-04-25T05:51:29.780Z,4.8
2023-04-25T06:04:10.649Z,5
2023-04-25T06:06:16.592Z,5.1
2023-04-25T06:08:22.876Z,5.2
2023-04-25T06:10:29.223Z,5.5
2023-04-25T06:12:35.408Z,5.5
2023-04-25T06:14:44.597Z,5.3
2023-04-25T06:16:50.873Z,5.3
2023-04-25T06:27:22.285Z,5.4
2023-04-25T06:29:31.492Z,5.4
2023-04-25T06:31:37.853Z,5.5
2023-04-25T06:33:44.047Z,5.5
2023-04-25T06:34:48.639Z,5.5
2023-04-25T06:36:54.922Z,5.6
2023-04-25T06:41:07.525Z,5.8
2023-04-25T06:43:16.700Z,6
2023-04-25T06:45:23.039Z,6
2023-04-25T06:47:29.335Z,6.2
2023-04-25T06:49:35.630Z,6.2
2023-04-25T06:51:41.893Z,6.3
2023-04-25T06:53:48.214Z,6.3
2023-04-25T07:00:09.874Z,6.6
2023-04-25T07:06:28.609Z,7.1
2023-04-25T07:08:34.882Z,7.1
2023-04-25T07:10:41.195Z,6.8
2023-04-25T07:19:09.032Z,10.4
2023-04-25T07:32:53.952Z,12.3
2023-04-25T07:35:00.143Z,12.6
2023-04-25T07:37:06.346Z,12.6
2023-04-25T07:41:21.578Z,13.6
2023-04-25T07:43:27.836Z,13.5
2023-04-25T07:45:34.092Z,11.5
2023-04-25T07:47:40.352Z,10.9
2023-04-25T07:51:52.827Z,14.9
2023-04-25T07:53:59.078Z,13
2023-04-25T07:56:08.148Z,8.3
2023-04-25T07:58:14.402Z,6.1
2023-04-25T08:00:20.673Z,5
2023-04-25T08:02:27.018Z,4.5
2023-04-25T08:08:45.705Z,4.6
2023-04-25T08:13:00.991Z,5.2
2023-04-25T08:19:19.677Z,6.1
2023-04-25T08:21:25.887Z,6.8
2023-04-25T08:23:32.137Z,7.2
2023-04-25T08:25:41.143Z,7.8
2023-04-25T08:27:47.368Z,8
2023-04-25T08:32:19.157Z,8.3
2023-04-25T08:34:25.373Z,8.8
2023-04-25T08:36:39.059Z,10.7
2023-04-25T08:38:40.630Z,11.7
2023-04-25T08:40:46.840Z,11.8
2023-04-25T08:42:53.080Z,12
2023-04-25T08:44:59.306Z,11.4
2023-04-25T08:47:05.674Z,11.3
2023-04-25T08:49:11.815Z,11.3
2023-04-25T08:51:19.108Z,11.2
2023-04-25T08:53:28.206Z,11.5
2023-04-25T08:57:41.198Z,11.4
2023-04-25T09:01:53.708Z,11.4
2023-04-25T09:04:00.025Z,11.2
2023-04-25T09:06:06.200Z,10.1
2023-04-25T09:08:15.316Z,10.3
2023-04-25T09:10:21.578Z,10.2
2023-04-25T09:14:34.106Z,8.2
2023-04-25T09:16:41.642Z,7.8
2023-04-25T09:23:02.055Z,7.2
2023-04-25T09:25:08.317Z,7.2
2023-04-25T09:27:14.573Z,7.2
2023-04-25T09:28:19.117Z,8
2023-04-25T09:30:25.373Z,8.4
2023-04-25T09:34:37.910Z,9.9
2023-04-25T09:36:47.421Z,9.9
2023-04-25T09:38:53.234Z,10.3
2023-04-25T09:45:12.030Z,10.4
2023-04-25T09:49:24.577Z,10.6
2023-04-25T09:51:33.632Z,9.9
2023-04-25T09:53:39.914Z,9.9
2023-04-25T09:57:52.433Z,10.4
2023-04-25T09:59:58.737Z,11.3
2023-04-25T10:08:26.669Z,10
2023-04-25T10:12:39.218Z,9.3
2023-04-25T10:14:45.506Z,9.2
2023-04-25T10:16:51.771Z,8.2
2023-04-25T10:18:58.065Z,7.7
2023-04-25T10:23:13.431Z,7.5
2023-04-25T10:26:24.234Z,7.6
2023-04-25T10:28:30.533Z,7.7
2023-04-25T10:30:36.795Z,7.7
2023-04-25T10:32:43.079Z,7.8
2023-04-25T10:36:58.377Z,7.8
2023-04-25T10:41:10.905Z,8.4
2023-04-25T10:43:17.170Z,8.5
2023-04-25T10:45:23.440Z,8.5
2023-04-25T10:49:38.749Z,9.2
2023-04-25T10:55:57.579Z,10.4
2023-04-25T10:58:03.846Z,10.3
2023-04-25T11:08:37.973Z,9.2
2023-04-25T11:14:56.759Z,9.1
2023-04-25T11:17:03.128Z,9.2
2023-04-25T11:24:29.140Z,11.3
2023-04-25T11:30:47.942Z,12
2023-04-25T11:32:57.077Z,13
2023-04-25T11:35:03.277Z,13.2
2023-04-25T11:43:28.416Z,11.6
2023-04-25T11:45:34.705Z,10.6
2023-04-25T11:49:50.054Z,9.6
2023-04-25T11:54:02.643Z,10.1
2023-04-25T11:56:08.932Z,11.1
2023-04-25T11:58:15.168Z,11.4
2023-04-25T12:00:21.504Z,11.1
2023-04-25T12:02:30.741Z,8.8
2023-04-25T12:04:37.289Z,8.4
2023-04-25T12:06:43.185Z,8.1
2023-04-25T12:08:49.544Z,8.4
2023-04-25T12:10:55.624Z,9.4
2023-04-25T12:13:01.919Z,10.2
2023-04-25T12:15:08.176Z,10.3
2023-04-25T12:17:17.289Z,10.9
2023-04-25T12:19:23.534Z,11
2023-04-25T12:21:29.775Z,11.2
2023-04-25T12:26:01.538Z,12
2023-04-25T12:28:07.832Z,11.2
2023-04-25T12:30:16.910Z,11.7
2023-04-25T12:34:29.488Z,12.6
2023-04-25T12:38:42.064Z,12.2
2023-04-25T12:40:48.329Z,12.2
2023-04-25T12:42:54.631Z,11.9
2023-04-25T12:47:10.114Z,11.1
2023-04-25T12:49:19.110Z,10.7
2023-04-25T12:51:22.637Z,10.6
2023-04-25T12:53:28.937Z,10.7
2023-04-25T12:55:35.222Z,11.2
2023-04-25T12:57:41.537Z,11.3
2023-04-25T12:59:50.622Z,10.4
2023-04-25T13:01:56.956Z,10.1
2023-04-25T13:04:03.434Z,9.8
2023-04-25T13:06:09.492Z,9.9
2023-04-25T13:08:15.794Z,10.1
2023-04-25T13:10:22.063Z,10.1
2023-04-25T13:12:28.349Z,10.6
2023-04-25T13:14:37.462Z,11
2023-04-25T13:16:43.759Z,11.3
2023-04-25T13:18:50.008Z,11
2023-04-25T13:19:54.561Z,10.2
2023-04-25T13:24:07.127Z,9.9
2023-04-25T13:28:22.488Z,10.1
2023-04-25T13:30:28.785Z,10.2
2023-04-25T13:32:35.051Z,10.6
2023-04-25T13:34:41.341Z,10.4
2023-04-25T13:36:47.607Z,10.5
2023-04-25T13:38:53.898Z,10.6
2023-04-25T13:41:00.223Z,10.8
2023-04-25T13:43:09.287Z,10.7
2023-04-25T13:45:15.534Z,11
2023-04-25T13:55:46.954Z,10.9
2023-04-25T13:57:56.072Z,11.4
2023-04-25T14:02:08.644Z,11.5
2023-04-25T14:04:14.925Z,10.9
2023-04-25T14:06:21.232Z,10.7
2023-04-25T14:08:27.489Z,11.2
2023-04-25T14:10:33.769Z,10.5
2023-04-25T14:12:42.906Z,10.4
2023-04-25T14:14:49.266Z,10.3
2023-04-25T14:26:27.990Z,10.3
2023-04-25T14:28:34.277Z,9.9
2023-04-25T14:30:40.546Z,9.9
2023-04-25T14:32:46.901Z,9.7
2023-04-25T14:36:59.439Z,9.8
2023-04-25T14:39:05.737Z,9.7
2023-04-25T14:43:21.100Z,10
2023-04-25T14:45:27.377Z,10
2023-04-25T14:58:07.913Z,11.4
2023-04-25T15:00:14.172Z,10.8
2023-04-25T15:02:22.140Z,10.1
2023-04-25T15:08:40.881Z,10.1
2023-04-25T15:10:49.986Z,10.2
2023-04-25T15:15:02.574Z,10.8
2023-04-25T15:16:07.174Z,11.2
2023-04-25T15:24:35.103Z,11.8
2023-04-25T15:26:41.408Z,11.6
2023-04-25T15:28:47.698Z,11.1
2023-04-25T15:37:12.897Z,11.9
2023-04-25T15:43:34.596Z,12.8
2023-04-25T15:45:40.921Z,12
2023-04-25T15:47:47.214Z,13
2023-04-25T15:49:53.557Z,14
2023-04-25T15:51:59.803Z,13.6
2023-04-25T15:54:08.894Z,12.6
2023-04-25T15:56:15.197Z,12.9
2023-04-25T15:58:21.499Z,13.4
2023-04-25T16:04:40.555Z,14.1
2023-04-25T16:08:55.785Z,12.7
2023-04-25T16:11:02.109Z,13.1
2023-04-25T16:15:33.165Z,13.1
2023-04-25T16:19:44.849Z,13.1
2023-04-25T16:21:53.926Z,12.8
2023-04-25T16:24:00.197Z,12.5
2023-04-25T16:26:06.512Z,10.5
2023-04-25T16:28:12.804Z,9.8
2023-04-25T16:38:47.105Z,11.2
2023-04-25T16:40:53.395Z,10.2
2023-04-25T16:47:16.345Z,10.8
2023-04-25T16:49:18.556Z,10.4
2023-04-25T16:51:27.693Z,13.1
2023-04-25T16:53:33.978Z,13.1
2023-04-25T17:04:05.526Z,13.9
2023-04-25T17:06:14.535Z,13.2
2023-04-25T17:08:20.830Z,12.9
2023-04-25T17:10:27.120Z,13.8
2023-04-25T17:22:06.005Z,13.4
2023-04-25T17:24:12.369Z,13.2
2023-04-25T17:26:18.577Z,12.6
2023-04-25T17:28:24.874Z,13.5
2023-04-25T17:30:31.213Z,13.3
2023-04-25T17:32:37.485Z,12
2023-04-25T17:34:46.564Z,9.3
2023-04-25T17:36:52.859Z,8.9
2023-04-25T17:41:05.484Z,8.5
2023-04-25T17:49:33.489Z,8.2
2023-04-25T17:51:39.777Z,8.3
2023-04-25T17:53:46.086Z,8.4
2023-04-25T18:04:20.329Z,8.1
2023-04-25T18:06:26.555Z,8
2023-04-25T18:08:32.848Z,7.9
2023-04-25T18:09:37.370Z,7.9
2023-04-25T18:11:43.633Z,7.9
2023-04-25T18:15:56.200Z,7.8
2023-04-25T18:18:05.242Z,7.6
2023-04-25T18:20:11.494Z,7.6
2023-04-25T18:28:36.519Z,7.5
2023-04-25T18:30:42.774Z,7.5
2023-04-25T18:39:21.646Z,7.3
2023-04-25T18:43:23.055Z,7.2
2023-04-25T18:45:29.320Z,7.3
2023-04-25T18:47:38.399Z,7.3
2023-04-25T18:49:44.590Z,7.2
2023-04-25T19:00:15.795Z,7.1
2023-04-25T19:02:24.949Z,7.1
2023-04-25T19:04:31.314Z,7.1
2023-04-25T19:06:37.286Z,7
2023-04-25T19:07:41.820Z,7
2023-04-25T19:09:48.046Z,7
2023-04-25T19:11:54.290Z,7
2023-04-25T19:14:00.513Z,6.9
2023-04-25T19:18:15.850Z,6.8
2023-04-25T19:20:22.019Z,6.8
2023-04-25T19:24:34.694Z,6.7
2023-04-25T19:30:56.181Z,6.5
2023-04-25T19:35:10.965Z,6.4
2023-04-25T19:37:14.847Z,6.4
2023-04-25T19:41:27.307Z,6.2
2023-04-25T19:43:33.543Z,6
2023-04-25T19:45:42.579Z,5.9
2023-04-25T19:47:48.845Z,5.8
2023-04-25T19:49:55.032Z,5.8
2023-04-25T19:52:01.278Z,5.7
2023-04-25T19:54:07.480Z,5.6
2023-04-25T19:56:13.687Z,5.5
2023-04-25T20:02:35.462Z,5.4
2023-04-25T20:04:41.667Z,5.4
2023-04-25T20:07:01.545Z,5.3
2023-04-25T20:09:07.772Z,5.3
2023-04-25T20:11:14.056Z,5.2
2023-04-25T20:13:23.278Z,5.2
2023-04-25T20:15:29.594Z,5.2
2023-04-25T20:17:35.909Z,5.2
2023-04-25T20:19:42.191Z,5.2
2023-04-25T20:23:54.792Z,5.3
2023-04-25T20:26:01.132Z,5.3
2023-04-25T20:30:16.635Z,5.2
2023-04-25T20:34:29.229Z,5.2
2023-04-25T20:36:35.509Z,5.2
2023-04-25T20:49:16.230Z,4.8
2023-04-25T20:51:22.598Z,4.8
2023-04-25T20:53:28.881Z,4.8
2023-04-25T20:55:35.159Z,4.7
2023-04-25T20:57:44.350Z,4.6
2023-04-25T21:03:01.689Z,4.5
2023-04-25T21:07:15.575Z,4.4
2023-04-25T21:09:21.872Z,4.3
2023-04-25T21:11:31.083Z,4.3
2023-04-25T21:13:37.309Z,4.2
2023-04-25T21:17:49.991Z,4.2
2023-04-25T21:22:02.409Z,4
2023-04-25T21:26:17.854Z,3.8
2023-04-25T21:28:24.132Z,3.8
2023-04-25T21:30:30.374Z,3.9
2023-04-25T21:32:36.704Z,3.9
2023-04-25T21:34:42.891Z,3.8
2023-04-25T21:36:49.169Z,3.7
2023-04-25T21:38:55.538Z,3.8
2023-04-25T21:41:04.580Z,3.7
2023-04-25T21:43:10.835Z,3.7
2023-04-25T21:47:23.392Z,3.7
2023-04-25T21:49:29.748Z,3.7
2023-04-25T21:51:35.835Z,3.7
2023-04-25T21:53:42.029Z,3.7
2023-04-25T21:55:51.186Z,3.9
2023-04-25T21:57:57.435Z,3.8
2023-04-25T22:00:03.681Z,3.7
2023-04-25T22:01:08.270Z,3.6
2023-04-25T22:07:26.965Z,3.6
2023-04-25T22:18:01.084Z,3.5
2023-04-25T22:20:07.298Z,3.4
2023-04-25T22:22:13.529Z,3.4
2023-04-25T22:30:41.396Z,3.2
2023-04-25T22:32:47.814Z,3.2
2023-04-25T22:34:53.864Z,3.2
2023-04-25T22:37:00.111Z,3.2
2023-04-25T22:39:09.244Z,3.2
2023-04-25T22:43:21.689Z,3.1
2023-04-25T22:45:28.018Z,3
2023-04-25T22:49:40.346Z,3
2023-04-25T22:51:46.550Z,3
2023-04-25T22:56:01.904Z,2.9
2023-04-25T22:58:08.113Z,2.9
2023-04-25T23:03:25.317Z,2.9
2023-04-25T23:11:52.864Z,2.7
2023-04-25T23:13:59.111Z,2.6
2023-04-25T23:16:05.288Z,2.7
2023-04-25T23:18:11.522Z,2.8
2023-04-25T23:20:17.728Z,2.9
2023-04-25T23:24:33.026Z,3
2023-04-25T23:26:39.227Z,3.1
2023-04-25T23:28:45.443Z,3.1
2023-04-25T23:30:51.672Z,3.1
2023-04-25T23:37:13.141Z,2.9
2023-04-25T23:39:19.367Z,2.8
2023-04-25T23:41:25.553Z,2.8
2023-04-25T23:43:31.772Z,2.6
2023-04-25T23:45:37.987Z,2.5
2023-04-25T23:49:50.420Z,2.5
2023-04-25T23:51:59.512Z,2.4
2023-04-25T23:54:05.712Z,2.3
2023-04-25T23:56:11.922Z,2.3
2023-04-25T23:58:31.797Z,2.3
